createdAt,value
2022-12-23T00:00:15.458Z,88.36
2022-12-23T00:02:43.181Z,88.53
2022-12-23T00:05:10.671Z,88.65
2022-12-23T00:07:38.134Z,88.95
2022-12-23T00:10:06.072Z,88.63
2022-12-23T00:12:58.073Z,88.12
2022-12-23T00:15:28.197Z,87.43
2022-12-23T00:17:56.062Z,86.89
2022-12-23T00:20:23.622Z,87.84
2022-12-23T00:23:07.741Z,90.17
2022-12-23T00:25:46.423Z,91.35
2022-12-23T00:28:20.191Z,91.21
2022-12-23T00:31:02.019Z,92.03
2022-12-23T00:33:33.653Z,92.31
2022-12-23T00:36:01.650Z,92.80
2022-12-23T00:38:47.746Z,92.51
2022-12-23T00:41:37.464Z,93.74
2022-12-23T00:44:05.049Z,94.07
2022-12-23T00:46:34.722Z,94.75
2022-12-23T00:49:21.254Z,96.35
2022-12-23T00:51:51.903Z,97.37
2022-12-23T00:54:19.854Z,98.31
2022-12-23T00:56:50.020Z,98.61
2022-12-23T00:59:17.315Z,98.96
2022-12-23T01:02:03.745Z,99.00
2022-12-23T01:04:49.684Z,99.81
2022-12-23T01:07:17.103Z,100.00
2022-12-23T01:09:44.461Z,100.00
2022-12-23T01:12:11.899Z,100.00
2022-12-23T01:14:39.150Z,100.00
2022-12-23T01:17:07.631Z,100.00
2022-12-23T01:19:35.119Z,100.00
2022-12-23T01:22:03.206Z,100.00
2022-12-23T01:24:31.580Z,100.00
2022-12-23T01:26:59.577Z,100.00
2022-12-23T01:29:27.586Z,98.86
2022-12-23T01:31:54.974Z,100.00
2022-12-23T01:34:22.555Z,100.00
2022-12-23T01:36:49.775Z,100.00
2022-12-23T01:39:17.172Z,100.00
2022-12-23T01:42:03.004Z,100.00
2022-12-23T01:44:52.392Z,100.00
2022-12-23T01:47:22.517Z,100.00
2022-12-23T01:49:50.667Z,100.00
2022-12-23T01:52:18.452Z,100.00
2022-12-23T01:54:46.023Z,100.00
2022-12-23T01:57:13.320Z,100.00
2022-12-23T02:00:00.406Z,100.00
2022-12-23T02:02:48.710Z,100.00
2022-12-23T02:05:17.062Z,100.00
2022-12-23T02:08:03.477Z,100.00
2022-12-23T02:10:44.247Z,97.55
2022-12-23T02:13:24.287Z,97.11
2022-12-23T02:16:16.549Z,96.03
2022-12-23T02:18:50.943Z,96.32
2022-12-23T02:21:21.528Z,97.03
2022-12-23T02:24:17.848Z,96.28
2022-12-23T02:27:19.307Z,96.97
2022-12-23T02:30:22.190Z,96.62
2022-12-23T02:33:07.532Z,96.00
2022-12-23T02:35:47.066Z,95.12
2022-12-23T02:38:29.975Z,93.45
2022-12-23T02:41:12.318Z,93.81
2022-12-23T02:43:47.284Z,93.67
2022-12-23T02:46:26.239Z,92.78
2022-12-23T02:49:11.373Z,92.56
2022-12-23T02:51:44.114Z,91.84
2022-12-23T02:54:16.270Z,92.06
2022-12-23T02:56:46.417Z,92.46
2022-12-23T02:59:17.436Z,92.00
2022-12-23T03:01:45.636Z,91.47
2022-12-23T03:04:14.326Z,90.67
2022-12-23T03:06:43.907Z,90.43
2022-12-23T03:09:17.896Z,90.79
2022-12-23T03:12:17.223Z,90.11
2022-12-23T03:15:08.473Z,90.60
2022-12-23T03:18:02.500Z,90.58
2022-12-23T03:20:51.665Z,90.24
2022-12-23T03:23:26.597Z,90.29
2022-12-23T03:26:16.376Z,89.96
2022-12-23T03:28:51.550Z,89.98
2022-12-23T03:31:24.283Z,90.18
2022-12-23T03:34:03.844Z,90.13
2022-12-23T03:36:45.019Z,90.24
2022-12-23T03:39:16.507Z,90.31
2022-12-23T03:41:54.323Z,90.22
2022-12-23T03:44:28.760Z,90.61
2022-12-23T03:47:07.308Z,90.91
2022-12-23T03:49:44.611Z,90.70
2022-12-23T03:52:21.931Z,90.99
2022-12-23T03:54:53.539Z,90.84
2022-12-23T03:57:26.346Z,90.78
2022-12-23T03:59:54.200Z,90.08
2022-12-23T04:02:36.128Z,90.37
2022-12-23T04:05:25.096Z,90.94
2022-12-23T04:08:13.670Z,90.97
2022-12-23T04:10:41.160Z,91.50
2022-12-23T04:13:08.837Z,91.22
2022-12-23T04:15:41.198Z,91.99
2022-12-23T04:18:09.642Z,91.77
2022-12-23T04:20:37.452Z,91.55
2022-12-23T04:23:05.204Z,92.42
2022-12-23T04:25:32.575Z,93.54
2022-12-23T04:27:59.876Z,93.76
2022-12-23T04:30:33.535Z,92.71
2022-12-23T04:33:02.574Z,92.89
2022-12-23T04:35:30.686Z,93.13
2022-12-23T04:37:57.895Z,92.54
2022-12-23T04:40:25.187Z,92.97
2022-12-23T04:42:52.475Z,93.16
2022-12-23T04:45:19.876Z,93.11
2022-12-23T04:47:47.157Z,94.16
2022-12-23T04:50:16.077Z,93.91
2022-12-23T04:52:43.987Z,93.28
2022-12-23T04:55:11.676Z,92.89
2022-12-23T04:57:39.122Z,92.92
2022-12-23T05:00:08.335Z,93.29
2022-12-23T05:02:35.744Z,92.79
2022-12-23T05:05:03.537Z,93.71
2022-12-23T05:07:30.811Z,93.89
2022-12-23T05:10:01.905Z,94.49
2022-12-23T05:12:31.533Z,95.50
2022-12-23T05:14:58.837Z,95.08
2022-12-23T05:17:26.154Z,95.09
2022-12-23T05:19:53.410Z,95.88
2022-12-23T05:22:20.753Z,95.35
2022-12-23T05:24:48.386Z,95.31
2022-12-23T05:27:15.681Z,95.88
2022-12-23T05:29:42.993Z,95.71
2022-12-23T05:32:10.363Z,95.76
2022-12-23T05:34:37.757Z,95.52
2022-12-23T05:37:05.018Z,95.76
2022-12-23T05:39:32.339Z,96.49
2022-12-23T05:41:59.566Z,96.92
2022-12-23T05:44:26.940Z,97.17
2022-12-23T05:46:54.222Z,97.27
2022-12-23T05:49:22.610Z,97.53
2022-12-23T05:51:49.964Z,97.88
2022-12-23T05:54:17.277Z,99.20
2022-12-23T05:56:44.612Z,100.00
2022-12-23T05:59:12.093Z,99.86
2022-12-23T06:01:39.528Z,99.52
2022-12-23T06:04:06.967Z,99.43
2022-12-23T06:06:34.330Z,100.00
2022-12-23T06:09:01.584Z,100.00
2022-12-23T06:11:28.931Z,100.00
2022-12-23T06:13:56.230Z,100.00
2022-12-23T06:16:23.518Z,100.00
2022-12-23T06:18:55.222Z,100.00
2022-12-23T06:21:22.726Z,100.00
2022-12-23T06:23:50.039Z,100.00
2022-12-23T06:26:17.429Z,100.00
2022-12-23T06:28:44.674Z,100.00
2022-12-23T06:31:11.907Z,100.00
2022-12-23T06:33:39.182Z,100.00
2022-12-23T06:36:07.297Z,100.00
2022-12-23T06:38:35.097Z,100.00
2022-12-23T06:41:02.555Z,99.60
2022-12-23T06:43:29.911Z,97.49
2022-12-23T06:45:57.264Z,98.37
2022-12-23T06:48:24.609Z,98.73
2022-12-23T06:50:52.770Z,99.20
2022-12-23T06:53:20.041Z,100.00
2022-12-23T06:55:47.672Z,99.92
2022-12-23T06:58:14.988Z,99.83
2022-12-23T07:00:42.280Z,99.39
2022-12-23T07:03:09.614Z,97.89
2022-12-23T07:05:37.904Z,97.36
2022-12-23T07:08:05.683Z,97.11
2022-12-23T07:10:34.144Z,95.88
2022-12-23T07:13:01.682Z,94.52
2022-12-23T07:15:29.428Z,95.15
2022-12-23T07:17:56.674Z,95.64
2022-12-23T07:20:23.939Z,95.95
2022-12-23T07:22:54.288Z,94.86
2022-12-23T07:25:21.797Z,95.54
2022-12-23T07:27:52.246Z,96.04
2022-12-23T07:30:19.675Z,96.28
2022-12-23T07:32:50.920Z,96.20
2022-12-23T07:35:18.924Z,93.96
2022-12-23T07:37:46.156Z,94.05
2022-12-23T07:40:13.686Z,94.59
2022-12-23T07:42:46.554Z,95.52
2022-12-23T07:45:14.501Z,94.68
2022-12-23T07:47:42.270Z,95.49
2022-12-23T07:50:09.990Z,96.61
2022-12-23T07:52:37.559Z,96.00
2022-12-23T07:55:05.752Z,94.94
2022-12-23T07:57:37.959Z,93.38
2022-12-23T08:00:07.305Z,93.59
2022-12-23T08:02:39.926Z,93.41
2022-12-23T08:05:08.485Z,93.65
2022-12-23T08:07:36.312Z,94.31
2022-12-23T08:10:04.461Z,92.44
2022-12-23T08:12:31.764Z,93.10
2022-12-23T08:14:59.074Z,92.57
2022-12-23T08:17:27.881Z,92.23
2022-12-23T08:19:55.557Z,94.82
2022-12-23T08:22:23.170Z,93.48
2022-12-23T08:24:50.544Z,90.69
2022-12-23T08:27:17.947Z,90.64
2022-12-23T08:29:45.412Z,91.81
2022-12-23T08:32:12.882Z,91.88
2022-12-23T08:34:40.255Z,91.07
2022-12-23T08:37:07.616Z,90.28
2022-12-23T08:39:34.928Z,91.10
2022-12-23T08:42:02.367Z,91.04
2022-12-23T08:44:29.906Z,92.04
2022-12-23T08:46:57.466Z,92.04
2022-12-23T08:49:24.717Z,91.41
2022-12-23T08:51:52.127Z,91.76
2022-12-23T08:54:20.517Z,91.95
2022-12-23T08:56:47.889Z,91.45
2022-12-23T08:59:19.664Z,91.21
2022-12-23T09:01:48.367Z,90.91
2022-12-23T09:04:15.975Z,91.23
2022-12-23T09:06:43.801Z,91.08
2022-12-23T09:09:12.784Z,91.72
2022-12-23T09:11:40.114Z,92.20
2022-12-23T09:14:10.267Z,92.18
2022-12-23T09:16:37.650Z,91.71
2022-12-23T09:19:05.089Z,91.96
2022-12-23T09:21:32.439Z,92.17
2022-12-23T09:23:59.668Z,92.47
2022-12-23T09:26:29.089Z,92.87
2022-12-23T09:28:56.980Z,93.99
2022-12-23T09:31:26.742Z,93.86
2022-12-23T09:33:58.813Z,94.88
2022-12-23T09:36:29.946Z,94.72
2022-12-23T09:38:58.168Z,95.97
2022-12-23T09:41:46.476Z,94.33
2022-12-23T09:44:29.807Z,92.91
2022-12-23T09:47:00.876Z,92.63
2022-12-23T09:49:30.277Z,93.56
2022-12-23T09:52:03.988Z,94.29
2022-12-23T09:54:44.078Z,93.08
2022-12-23T09:57:28.247Z,92.01
2022-12-23T09:59:58.423Z,91.57
2022-12-23T10:02:25.846Z,90.53
2022-12-23T10:05:17.176Z,90.45
2022-12-23T10:07:48.304Z,90.40
2022-12-23T10:10:40.042Z,90.12
2022-12-23T10:13:25.107Z,91.54
2022-12-23T10:15:53.875Z,90.91
2022-12-23T10:18:36.099Z,92.27
2022-12-23T10:21:06.894Z,91.11
2022-12-23T10:23:38.615Z,92.18
2022-12-23T10:26:15.451Z,92.71
2022-12-23T10:28:42.746Z,94.27
2022-12-23T10:31:39.245Z,95.84
2022-12-23T10:34:36.635Z,96.22
2022-12-23T10:37:09.031Z,96.72
2022-12-23T10:40:06.271Z,96.71
2022-12-23T10:42:46.128Z,96.11
2022-12-23T10:45:19.304Z,96.58
2022-12-23T10:48:08.603Z,96.81
2022-12-23T10:51:01.837Z,96.63
2022-12-23T11:04:50.953Z,90.68
2022-12-23T11:10:19.587Z,91.68
2022-12-23T11:12:50.583Z,90.50
2022-12-23T11:15:40.138Z,89.86
2022-12-23T11:18:11.734Z,89.92
2022-12-23T11:20:41.167Z,89.44
2022-12-23T11:23:27.105Z,90.04
2022-12-23T11:26:07.412Z,90.00
2022-12-23T11:28:47.832Z,89.27
2022-12-23T11:31:17.304Z,89.23
2022-12-23T11:34:01.936Z,88.37
2022-12-23T11:36:30.570Z,88.53
2022-12-23T11:39:23.770Z,87.84
2022-12-23T11:41:53.954Z,86.30
2022-12-23T11:44:26.349Z,86.47
2022-12-23T11:46:54.178Z,86.74
2022-12-23T11:49:33.549Z,85.90
2022-12-23T11:52:02.281Z,85.73
2022-12-23T11:54:29.599Z,85.76
2022-12-23T11:56:57.678Z,85.90
2022-12-23T11:59:39.765Z,86.01
2022-12-23T12:02:22.934Z,85.59
2022-12-23T12:05:03.096Z,85.03
2022-12-23T12:07:30.782Z,84.72
2022-12-23T12:09:59.446Z,83.90
2022-12-23T12:12:28.186Z,83.90
2022-12-23T12:14:57.350Z,84.48
2022-12-23T12:17:36.255Z,85.48
2022-12-23T12:20:20.930Z,85.46
2022-12-23T12:23:10.780Z,85.46
2022-12-23T12:25:41.143Z,85.41
2022-12-23T12:28:14.547Z,85.91
2022-12-23T12:30:53.010Z,83.72
2022-12-23T12:33:28.836Z,83.44
2022-12-23T12:36:10.041Z,82.72
2022-12-23T12:38:39.044Z,82.98
2022-12-23T12:41:29.673Z,82.02
2022-12-23T12:44:23.216Z,83.02
2022-12-23T12:46:54.346Z,83.18
2022-12-23T12:49:42.503Z,83.45
2022-12-23T12:52:20.233Z,82.55
2022-12-23T12:54:53.493Z,82.28
2022-12-23T12:57:23.593Z,82.33
2022-12-23T12:59:51.596Z,82.69
2022-12-23T13:02:24.988Z,80.59
2022-12-23T13:05:10.641Z,81.02
2022-12-23T13:08:15.402Z,80.13
2022-12-23T13:10:53.138Z,79.95
2022-12-23T13:13:29.175Z,80.96
2022-12-23T13:16:14.473Z,81.23
2022-12-23T13:19:05.986Z,81.14
2022-12-23T13:21:41.048Z,81.27
2022-12-23T13:24:34.559Z,82.46
2022-12-23T13:27:14.891Z,84.76
2022-12-23T13:29:45.121Z,88.50
2022-12-23T13:32:21.773Z,90.82
2022-12-23T13:35:04.288Z,93.45
2022-12-23T13:37:39.698Z,93.63
2022-12-23T13:40:28.514Z,93.92
2022-12-23T13:43:00.315Z,92.68
2022-12-23T13:45:32.941Z,93.69
2022-12-23T13:48:37.934Z,93.36
2022-12-23T13:51:15.904Z,94.63
2022-12-23T13:54:16.124Z,94.02
2022-12-23T13:56:44.251Z,95.31
2022-12-23T13:59:13.300Z,94.49
2022-12-23T14:01:41.907Z,94.48
2022-12-23T14:04:53.894Z,94.61
2022-12-23T14:07:23.134Z,94.15
2022-12-23T14:10:21.647Z,93.79
2022-12-23T14:13:09.254Z,92.90
2022-12-23T14:16:18.595Z,93.37
2022-12-23T14:19:24.945Z,92.74
2022-12-23T14:22:23.674Z,91.91
2022-12-23T14:25:35.880Z,91.32
2022-12-23T14:28:33.774Z,90.32
2022-12-23T14:31:39.953Z,90.63
2022-12-23T14:34:30.540Z,89.44
2022-12-23T14:37:21.225Z,88.72
2022-12-23T14:40:39.670Z,88.52
2022-12-23T14:43:33.490Z,87.72
2022-12-23T14:46:33.220Z,89.17
2022-12-23T14:49:40.098Z,87.44
2022-12-23T14:52:50.700Z,87.66
2022-12-23T14:55:42.282Z,86.25
2022-12-23T14:58:50.906Z,87.41
2022-12-23T15:01:59.470Z,86.06
2022-12-23T15:04:54.499Z,86.39
2022-12-23T15:07:43.969Z,87.43
2022-12-23T15:10:31.952Z,86.96
2022-12-23T15:13:19.511Z,86.30
2022-12-23T15:16:07.328Z,84.39
2022-12-23T15:18:56.516Z,85.69
2022-12-23T15:21:48.198Z,83.87
2022-12-23T15:24:40.909Z,83.86
2022-12-23T15:27:33.682Z,83.76
2022-12-23T15:30:21.798Z,83.82
2022-12-23T15:33:51.465Z,83.53
2022-12-23T15:36:31.942Z,82.93
2022-12-23T15:39:22.298Z,82.96
2022-12-23T15:42:27.323Z,84.42
2022-12-23T15:45:26.793Z,86.57
2022-12-23T15:48:31.757Z,87.63
2022-12-23T15:52:05.625Z,87.37
2022-12-23T15:54:52.747Z,83.04
2022-12-23T15:57:50.022Z,82.43
2022-12-23T16:00:59.450Z,86.70
2022-12-23T16:03:55.754Z,82.04
2022-12-23T16:06:49.237Z,84.33
2022-12-23T16:09:36.962Z,82.81
2022-12-23T16:12:26.216Z,82.54
2022-12-23T16:15:31.954Z,82.08
2022-12-23T16:18:19.434Z,84.92
2022-12-23T16:21:12.071Z,84.10
2022-12-23T16:24:00.187Z,81.92
2022-12-23T16:26:47.712Z,83.26
2022-12-23T16:29:35.923Z,84.61
2022-12-23T16:32:23.525Z,85.53
2022-12-23T16:35:12.491Z,83.53
2022-12-23T16:38:17.631Z,87.68
2022-12-23T16:41:05.344Z,84.13
2022-12-23T16:43:53.239Z,82.86
2022-12-23T16:46:45.137Z,82.73
2022-12-23T16:49:34.271Z,81.48
2022-12-23T16:52:22.190Z,81.25
2022-12-23T16:55:17.004Z,84.66
2022-12-23T16:58:04.765Z,85.43
2022-12-23T17:00:52.825Z,83.39
2022-12-23T17:03:40.567Z,84.15
2022-12-23T17:06:28.112Z,81.86
2022-12-23T17:09:15.719Z,83.80
2022-12-23T17:12:04.102Z,81.39
2022-12-23T17:14:51.945Z,80.88
2022-12-23T17:17:39.741Z,87.78
2022-12-23T17:20:27.243Z,88.71
2022-12-23T17:22:57.730Z,80.76
2022-12-23T17:25:26.731Z,81.05
2022-12-23T17:27:55.658Z,80.04
2022-12-23T17:30:41.557Z,87.45
2022-12-23T17:33:31.104Z,81.92
2022-12-23T17:36:16.983Z,82.87
2022-12-23T17:38:44.304Z,84.32
2022-12-23T17:41:20.892Z,84.32
2022-12-23T17:43:48.137Z,82.98
2022-12-23T17:46:15.669Z,81.75
2022-12-23T17:48:44.949Z,85.08
2022-12-23T17:51:14.416Z,81.89
2022-12-23T17:53:42.190Z,83.00
2022-12-23T17:56:20.221Z,82.16
2022-12-23T17:58:49.120Z,84.54
2022-12-23T18:01:27.884Z,87.39
2022-12-23T18:03:56.676Z,83.35
2022-12-23T18:06:25.267Z,84.80
2022-12-23T18:08:52.577Z,85.64
2022-12-23T18:11:29.777Z,84.13
2022-12-23T18:13:57.193Z,82.02
2022-12-23T18:16:24.477Z,81.69
2022-12-23T18:18:52.816Z,83.76
2022-12-23T18:21:25.174Z,83.78
2022-12-23T18:23:54.442Z,83.63
2022-12-23T18:26:22.202Z,82.92
2022-12-23T18:28:51.362Z,84.84
2022-12-23T18:31:21.466Z,82.28
2022-12-23T18:33:48.714Z,85.23
2022-12-23T18:36:26.281Z,80.71
2022-12-23T18:38:53.830Z,82.78
2022-12-23T18:41:22.121Z,84.48
2022-12-23T18:43:50.366Z,81.53
2022-12-23T18:46:20.080Z,84.06
2022-12-23T18:48:48.079Z,79.61
2022-12-23T18:51:20.274Z,81.73
2022-12-23T18:53:48.310Z,78.75
2022-12-23T18:56:21.215Z,80.04
2022-12-23T18:58:48.788Z,81.59
2022-12-23T19:01:17.212Z,80.57
2022-12-23T19:03:45.337Z,85.55
2022-12-23T19:06:14.757Z,80.02
2022-12-23T19:08:42.565Z,84.23
2022-12-23T19:11:19.000Z,83.56
2022-12-23T19:13:47.088Z,83.40
2022-12-23T19:16:16.688Z,81.13
2022-12-23T19:18:45.111Z,82.16
2022-12-23T19:21:12.504Z,82.72
2022-12-23T19:23:41.045Z,82.58
2022-12-23T19:26:13.656Z,83.09
2022-12-23T19:28:41.720Z,83.97
2022-12-23T19:31:13.306Z,83.87
2022-12-23T19:33:42.182Z,83.22
2022-12-23T19:36:22.733Z,82.37
2022-12-23T19:38:50.489Z,81.97
2022-12-23T19:41:18.464Z,83.67
2022-12-23T19:43:46.701Z,83.99
2022-12-23T19:46:15.387Z,83.31
2022-12-23T19:48:42.998Z,82.19
2022-12-23T19:51:13.134Z,81.71
2022-12-23T19:53:40.897Z,82.40
2022-12-23T19:56:13.743Z,83.62
2022-12-23T19:58:42.843Z,80.56
2022-12-23T20:01:13.588Z,80.45
2022-12-23T20:03:41.995Z,81.99
2022-12-23T20:06:21.742Z,85.13
2022-12-23T20:08:50.910Z,83.74
2022-12-23T20:11:23.106Z,86.13
2022-12-23T20:13:55.136Z,84.55
2022-12-23T20:16:23.271Z,81.84
2022-12-23T20:18:50.878Z,86.25
2022-12-23T20:21:18.870Z,83.48
2022-12-23T20:23:46.196Z,81.81
2022-12-23T20:26:14.117Z,80.54
2022-12-23T20:28:42.529Z,81.31
2022-12-23T20:31:10.020Z,81.84
2022-12-23T20:33:38.595Z,84.86
2022-12-23T20:36:07.046Z,84.20
2022-12-23T20:38:35.895Z,80.34
2022-12-23T20:41:03.276Z,82.82
2022-12-23T20:43:30.761Z,80.56
2022-12-23T20:45:58.260Z,80.82
2022-12-23T20:48:31.820Z,81.18
2022-12-23T20:51:05.761Z,83.22
2022-12-23T20:53:33.321Z,82.64
2022-12-23T20:56:05.056Z,84.24
2022-12-23T20:58:51.171Z,78.94
2022-12-23T21:01:18.632Z,83.86
2022-12-23T21:03:45.871Z,83.44
2022-12-23T21:06:13.292Z,82.17
2022-12-23T21:08:40.726Z,85.68
2022-12-23T21:11:08.256Z,81.80
2022-12-23T21:13:37.009Z,83.86
2022-12-23T21:16:06.579Z,82.91
2022-12-23T21:18:34.888Z,80.10
2022-12-23T21:21:04.398Z,82.64
2022-12-23T21:23:37.037Z,83.53
2022-12-23T21:26:15.335Z,83.50
2022-12-23T21:28:43.911Z,81.83
2022-12-23T21:31:11.436Z,82.67
2022-12-23T21:33:40.513Z,81.23
2022-12-23T21:36:08.671Z,86.90
2022-12-23T21:38:38.807Z,81.31
2022-12-23T21:41:07.706Z,84.39
2022-12-23T21:43:35.608Z,82.64
2022-12-23T21:46:05.719Z,84.38
2022-12-23T21:48:35.122Z,84.09
2022-12-23T21:51:07.022Z,85.58
2022-12-23T21:53:35.256Z,83.62
2022-12-23T21:56:08.364Z,81.84
2022-12-23T21:58:36.179Z,83.93
2022-12-23T22:01:12.352Z,80.91
2022-12-23T22:03:40.114Z,85.62
2022-12-23T22:06:10.808Z,84.54
2022-12-23T22:08:39.006Z,82.36
2022-12-23T22:11:11.307Z,81.87
2022-12-23T22:13:38.843Z,83.04
2022-12-23T22:16:10.574Z,83.05
2022-12-23T22:18:38.903Z,85.71
2022-12-23T22:21:15.331Z,83.77
2022-12-23T22:23:43.243Z,83.17
2022-12-23T22:26:12.707Z,86.05
2022-12-23T22:28:40.204Z,83.70
2022-12-23T22:31:13.799Z,86.52
2022-12-23T22:33:41.237Z,82.56
2022-12-23T22:36:11.597Z,82.15
2022-12-23T22:38:39.184Z,82.45
2022-12-23T22:41:07.196Z,82.74
2022-12-23T22:43:34.669Z,84.31
2022-12-23T22:46:02.158Z,82.62
2022-12-23T22:48:30.779Z,83.08
2022-12-23T22:51:09.522Z,83.44
2022-12-23T22:53:37.037Z,83.74
2022-12-23T22:56:05.385Z,81.78
2022-12-23T22:58:34.043Z,82.17
2022-12-23T23:01:01.809Z,83.41
2022-12-23T23:03:29.732Z,84.83
2022-12-23T23:06:02.491Z,81.81
2022-12-23T23:08:31.141Z,82.24
2022-12-23T23:10:59.942Z,81.81
2022-12-23T23:13:29.938Z,83.22
2022-12-23T23:15:57.472Z,83.93
2022-12-23T23:18:25.329Z,82.38
2022-12-23T23:20:52.911Z,82.51
2022-12-23T23:23:20.452Z,80.80
2022-12-23T23:25:47.943Z,85.42
2022-12-23T23:28:15.699Z,82.33
2022-12-23T23:30:43.021Z,79.45
2022-12-23T23:33:10.670Z,82.30
2022-12-23T23:35:37.954Z,80.68
2022-12-23T23:38:05.325Z,81.20
2022-12-23T23:40:32.747Z,81.03
2022-12-23T23:43:00.056Z,80.61
2022-12-23T23:45:27.742Z,80.00
2022-12-23T23:47:55.442Z,80.11
2022-12-23T23:50:22.735Z,84.19
2022-12-23T23:52:50.019Z,82.25
2022-12-23T23:55:17.524Z,82.70
2022-12-23T23:57:44.768Z,82.04
